Time;durP1;ratioP1;P1;durP2;ratioP2;P2;SDS_P1;SDS_P2;PMS_P1;PMS_P2;Temp;Humidity;BMP_temperature;BMP_pressure;BME280_temperature;BME280_humidity;BME280_pressure;Samples;Min_cycle;Max_cycle;Signal;HPM_P1;HPM_P2
2022/12/05 00:02:17;;;;;;;6.40;3.88;;;;;;;;;;5055400;28;20041;-76
2022/12/05 00:05:03;;;;;;;7.82;4.72;;;;;;;;;;5055483;28;20050;-76
2022/12/05 00:07:52;;;;;;;6.63;4.07;;;;;;;;;;5055530;28;20037;-77
2022/12/05 00:10:39;;;;;;;8.55;5.13;;;;;;;;;;5054414;28;20049;-76
2022/12/05 00:13:27;;;;;;;8.73;4.85;;;;;;;;;;5053764;28;20402;-73
2022/12/05 00:16:22;;;;;;;6.43;3.70;;;;;;;;;;5054868;28;20032;-73
2022/12/05 00:19:13;;;;;;;10.70;5.22;;;;;;;;;;5039185;28;20045;-75
2022/12/05 00:21:59;;;;;;;7.72;5.25;;;;;;;;;;5038143;28;20044;-75
2022/12/05 00:24:44;;;;;;;6.07;3.78;;;;;;;;;;5053140;28;20056;-74
2022/12/05 00:27:30;;;;;;;7.55;4.15;;;;;;;;;;5053444;28;20052;-74
2022/12/05 00:30:16;;;;;;;10.07;5.75;;;;;;;;;;5059033;28;20347;-76
2022/12/05 00:33:04;;;;;;;8.88;4.95;;;;;;;;;;5053859;28;20052;-74
2022/12/05 00:35:52;;;;;;;7.40;4.32;;;;;;;;;;5061176;28;20040;-74
2022/12/05 00:38:38;;;;;;;10.77;6.90;;;;;;;;;;5032519;28;20049;-77
2022/12/05 00:41:25;;;;;;;7.15;4.70;;;;;;;;;;5061565;28;20390;-76
2022/12/05 00:44:13;;;;;;;8.43;5.68;;;;;;;;;;5054547;28;20057;-74
2022/12/05 00:46:58;;;;;;;15.52;9.63;;;;;;;;;;5061572;28;20048;-73
2022/12/05 00:49:44;;;;;;;13.02;8.90;;;;;;;;;;5061969;28;20049;-76
2022/12/05 00:52:32;;;;;;;6.40;4.40;;;;;;;;;;5061211;28;20483;-74
2022/12/05 00:55:17;;;;;;;7.57;4.47;;;;;;;;;;5048157;28;20414;-76
2022/12/05 00:58:03;;;;;;;6.75;4.75;;;;;;;;;;5061635;28;20061;-76
2022/12/05 01:00:49;;;;;;;7.00;4.85;;;;;;;;;;5064099;28;20049;-76
2022/12/05 01:03:35;;;;;;;5.90;3.63;;;;;;;;;;5068836;28;20029;-75
2022/12/05 01:06:22;;;;;;;5.68;3.70;;;;;;;;;;5065792;28;20397;-75
2022/12/05 01:09:14;;;;;;;6.07;4.32;;;;;;;;;;5059821;28;20045;-74
2022/12/05 01:12:01;;;;;;;7.60;4.57;;;;;;;;;;5046257;28;20053;-74
2022/12/05 01:14:46;;;;;;;8.23;5.45;;;;;;;;;;5039470;28;20502;-74
2022/12/05 01:17:31;;;;;;;8.18;4.65;;;;;;;;;;5058786;28;20398;-75
2022/12/05 01:20:17;;;;;;;7.25;4.30;;;;;;;;;;5053955;28;20048;-75
2022/12/05 01:23:03;;;;;;;3.95;2.97;;;;;;;;;;5064560;28;20045;-76
2022/12/05 01:25:50;;;;;;;6.78;4.50;;;;;;;;;;5054562;28;20398;-77
2022/12/05 01:28:36;;;;;;;32.17;18.58;;;;;;;;;;5060441;28;20041;-77
2022/12/05 01:31:27;;;;;;;78.60;45.10;;;;;;;;;;5060499;28;20391;-77
2022/12/05 01:34:14;;;;;;;22.77;13.50;;;;;;;;;;5057791;28;20049;-76
2022/12/05 01:36:59;;;;;;;26.70;12.65;;;;;;;;;;5063380;28;20049;-76
2022/12/05 01:39:44;;;;;;;40.83;18.77;;;;;;;;;;5061124;28;20045;-76
2022/12/05 01:42:30;;;;;;;44.88;19.92;;;;;;;;;;5053656;28;20045;-76
2022/12/05 01:45:23;;;;;;;38.42;18.08;;;;;;;;;;5053899;28;20048;-75
2022/12/05 01:48:16;;;;;;;46.42;21.83;;;;;;;;;;5053568;28;20049;-76
2022/12/05 01:51:01;;;;;;;43.00;18.77;;;;;;;;;;5060560;28;20044;-77
2022/12/05 01:53:47;;;;;;;42.55;18.65;;;;;;;;;;5060173;28;20044;-76
2022/12/05 01:56:34;;;;;;;43.85;17.85;;;;;;;;;;5053692;28;20048;-76
2022/12/05 01:59:22;;;;;;;53.17;18.83;;;;;;;;;;5060065;28;20045;-78
2022/12/05 02:02:07;;;;;;;41.28;18.40;;;;;;;;;;5057831;28;20044;-76
2022/12/05 02:05:10;;;;;;;46.65;25.02;;;;;;;;;;5055265;28;20045;-77
2022/12/05 02:07:57;;;;;;;54.45;25.48;;;;;;;;;;5053434;28;20478;-76
2022/12/05 02:10:46;;;;;;;235.00;126.93;;;;;;;;;;5054960;28;20053;-77
2022/12/05 02:13:49;;;;;;;62.60;30.27;;;;;;;;;;5061960;28;20044;-75
2022/12/05 02:16:46;;;;;;;36.83;19.23;;;;;;;;;;5053423;28;20045;-76
2022/12/05 02:19:37;;;;;;;37.25;14.90;;;;;;;;;;5059694;28;20064;-76
2022/12/05 02:22:27;;;;;;;28.98;13.32;;;;;;;;;;5060101;28;20037;-76
2022/12/05 02:25:59;;;;;;;31.27;12.95;;;;;;;;;;5053266;28;20044;-75
2022/12/05 02:28:57;;;;;;;24.90;12.90;;;;;;;;;;5022148;28;20071;-77
2022/12/05 02:31:42;;;;;;;32.00;13.90;;;;;;;;;;5053150;28;20045;-77
2022/12/05 02:34:48;;;;;;;30.00;14.57;;;;;;;;;;5053882;28;20048;-75
2022/12/05 02:38:00;;;;;;;24.40;12.93;;;;;;;;;;5059818;28;20053;-78
2022/12/05 02:41:09;;;;;;;34.35;18.33;;;;;;;;;;5059845;28;20053;-75
2022/12/05 02:44:02;;;;;;;39.42;18.35;;;;;;;;;;5052530;28;20053;-76
2022/12/05 02:46:51;;;;;;;30.80;17.25;;;;;;;;;;5053197;28;20033;-76
2022/12/05 02:49:36;;;;;;;28.45;15.32;;;;;;;;;;5052907;28;20041;-75
2022/12/05 02:52:23;;;;;;;31.17;15.40;;;;;;;;;;5053223;28;20044;-76
2022/12/05 02:55:09;;;;;;;27.20;15.25;;;;;;;;;;5061706;28;20041;-76
2022/12/05 02:57:58;;;;;;;29.88;17.98;;;;;;;;;;5064153;28;20045;-75
2022/12/05 03:00:47;;;;;;;24.98;13.38;;;;;;;;;;5064962;28;20041;-76
2022/12/05 03:03:33;;;;;;;23.58;12.35;;;;;;;;;;5056157;28;20049;-75
2022/12/05 03:06:25;;;;;;;22.10;13.25;;;;;;;;;;5063089;28;20049;-75
2022/12/05 03:09:38;;;;;;;21.83;11.18;;;;;;;;;;5056353;28;20057;-76
2022/12/05 03:12:37;;;;;;;20.00;12.15;;;;;;;;;;5063103;28;20048;-76
2022/12/05 03:15:30;;;;;;;24.83;13.07;;;;;;;;;;5067078;28;20041;-77
2022/12/05 03:18:55;;;;;;;20.52;12.57;;;;;;;;;;5072558;28;20053;-76
2022/12/05 03:21:49;;;;;;;25.52;13.23;;;;;;;;;;5017636;28;20052;-76
2022/12/05 03:24:38;;;;;;;23.58;13.57;;;;;;;;;;5053916;28;20393;-77
2022/12/05 03:27:44;;;;;;;21.58;11.63;;;;;;;;;;5055298;28;20045;-77
2022/12/05 03:30:34;;;;;;;26.45;14.05;;;;;;;;;;5062021;28;20045;-76
2022/12/05 03:33:24;;;;;;;26.00;13.65;;;;;;;;;;5055144;28;20045;-75
2022/12/05 03:36:36;;;;;;;25.67;13.95;;;;;;;;;;5062361;28;20040;-75
2022/12/05 03:39:26;;;;;;;28.20;14.00;;;;;;;;;;5055719;28;20045;-75
2022/12/05 03:42:16;;;;;;;27.45;13.77;;;;;;;;;;5062703;28;20040;-75
2022/12/05 03:45:15;;;;;;;23.98;14.63;;;;;;;;;;5055866;28;20053;-76
2022/12/05 03:48:11;;;;;;;70.03;24.10;;;;;;;;;;5066439;28;20048;-76
2022/12/05 03:50:58;;;;;;;67.85;21.17;;;;;;;;;;5055642;28;20037;-76
2022/12/05 03:53:52;;;;;;;40.85;17.10;;;;;;;;;;5055502;28;20041;-76
2022/12/05 03:56:49;;;;;;;28.73;13.95;;;;;;;;;;5055573;28;20045;-76
2022/12/05 03:59:40;;;;;;;30.77;14.68;;;;;;;;;;5055506;28;20040;-76
2022/12/05 04:02:44;;;;;;;27.35;14.40;;;;;;;;;;5062436;28;20041;-75
2022/12/05 04:05:44;;;;;;;28.73;14.15;;;;;;;;;;5055245;28;20041;-77
2022/12/05 04:08:34;;;;;;;30.02;14.15;;;;;;;;;;5055276;28;20048;-75
2022/12/05 04:11:23;;;;;;;28.33;15.25;;;;;;;;;;5055217;28;20045;-76
2022/12/05 04:14:27;;;;;;;37.10;17.42;;;;;;;;;;5061718;28;20045;-76
2022/12/05 04:17:47;;;;;;;31.30;15.77;;;;;;;;;;5055074;28;20053;-75
2022/12/05 04:23:42;;;;;;;25.80;12.32;;;;;;;;;;5055075;28;20041;-76
2022/12/05 04:26:31;;;;;;;36.58;14.35;;;;;;;;;;5054972;28;20049;-75
2022/12/05 04:29:28;;;;;;;26.98;12.65;;;;;;;;;;5061288;28;20049;-76
2022/12/05 04:32:13;;;;;;;35.95;18.08;;;;;;;;;;5061970;28;20382;-76
2022/12/05 04:35:05;;;;;;;35.22;17.02;;;;;;;;;;5060441;28;20041;-75
2022/12/05 04:37:57;;;;;;;27.08;16.05;;;;;;;;;;5040051;28;20049;-75
2022/12/05 04:41:01;;;;;;;26.83;13.48;;;;;;;;;;5061910;28;20041;-77
2022/12/05 04:43:48;;;;;;;27.38;14.60;;;;;;;;;;5054245;28;20049;-77
2022/12/05 04:46:37;;;;;;;28.75;14.98;;;;;;;;;;5061202;28;20049;-76
2022/12/05 04:49:25;;;;;;;24.90;13.43;;;;;;;;;;5061183;28;20389;-75
2022/12/05 04:52:11;;;;;;;25.02;14.00;;;;;;;;;;5061684;28;20053;-76
2022/12/05 04:55:08;;;;;;;28.73;13.52;;;;;;;;;;5061349;28;20394;-75
2022/12/05 04:58:04;;;;;;;31.88;12.98;;;;;;;;;;5054206;28;20045;-77
2022/12/05 05:01:05;;;;;;;27.13;14.80;;;;;;;;;;5054238;28;20053;-75
2022/12/05 05:03:58;;;;;;;25.40;14.45;;;;;;;;;;5054336;28;20049;-76
2022/12/05 05:06:44;;;;;;;25.67;13.60;;;;;;;;;;5053979;28;20052;-76
2022/12/05 05:09:30;;;;;;;30.42;14.98;;;;;;;;;;5054062;28;20049;-76
2022/12/05 05:12:15;;;;;;;30.50;14.70;;;;;;;;;;5061173;28;20389;-75
2022/12/05 05:15:01;;;;;;;35.40;20.38;;;;;;;;;;5054041;28;20045;-75
2022/12/05 05:17:46;;;;;;;48.22;29.48;;;;;;;;;;5060119;28;20509;-75
2022/12/05 05:20:32;;;;;;;41.13;22.73;;;;;;;;;;5053611;28;20045;-77
2022/12/05 05:23:17;;;;;;;44.08;21.95;;;;;;;;;;5056544;28;20052;-76
2022/12/05 05:26:03;;;;;;;47.05;23.92;;;;;;;;;;5057249;28;20045;-77
2022/12/05 05:28:50;;;;;;;50.10;22.45;;;;;;;;;;5069621;28;20036;-76
2022/12/05 05:31:36;;;;;;;44.75;21.65;;;;;;;;;;5061459;28;20045;-75
2022/12/05 05:34:21;;;;;;;38.35;19.65;;;;;;;;;;5060191;28;20049;-77
2022/12/05 05:37:05;;;;;;;43.92;20.10;;;;;;;;;;5060266;28;20048;-76
2022/12/05 05:39:51;;;;;;;39.63;19.80;;;;;;;;;;5056770;28;20402;-76
2022/12/05 05:42:42;;;;;;;44.03;20.88;;;;;;;;;;5053960;28;20041;-77
2022/12/05 05:45:27;;;;;;;36.10;19.60;;;;;;;;;;5070295;28;20057;-77
2022/12/05 05:48:13;;;;;;;42.42;21.95;;;;;;;;;;5064478;28;20044;-76
2022/12/05 05:50:59;;;;;;;54.47;26.52;;;;;;;;;;5062631;28;20398;-75
2022/12/05 05:53:45;;;;;;;48.15;24.38;;;;;;;;;;5059685;28;20036;-76
2022/12/05 05:56:31;;;;;;;45.42;21.80;;;;;;;;;;5060147;28;20045;-76
2022/12/05 05:59:16;;;;;;;49.17;25.83;;;;;;;;;;5044842;28;20037;-76
2022/12/05 06:02:02;;;;;;;61.45;27.40;;;;;;;;;;5053280;28;20045;-78
2022/12/05 06:04:47;;;;;;;63.65;28.40;;;;;;;;;;5060241;28;20037;-76
2022/12/05 06:07:33;;;;;;;64.35;30.70;;;;;;;;;;5060807;28;20040;-76
2022/12/05 06:10:18;;;;;;;64.57;31.25;;;;;;;;;;5053392;28;20040;-78
2022/12/05 06:13:04;;;;;;;71.50;32.22;;;;;;;;;;5059622;28;20045;-77
2022/12/05 06:15:50;;;;;;;70.82;29.00;;;;;;;;;;5053524;28;20049;-76
2022/12/05 06:18:36;;;;;;;75.35;36.90;;;;;;;;;;5053366;28;20045;-75
2022/12/05 06:21:22;;;;;;;77.32;35.47;;;;;;;;;;5044933;28;20049;-75
2022/12/05 06:24:08;;;;;;;81.20;40.72;;;;;;;;;;5060533;28;20045;-77
2022/12/05 06:26:53;;;;;;;78.60;37.03;;;;;;;;;;5060697;28;20041;-78
2022/12/05 06:29:39;;;;;;;74.50;37.10;;;;;;;;;;5056273;28;20049;-75
2022/12/05 06:32:24;;;;;;;66.05;32.53;;;;;;;;;;5058649;28;20397;-76
2022/12/05 06:35:14;;;;;;;63.10;31.73;;;;;;;;;;5062895;28;20049;-73
2022/12/05 06:38:01;;;;;;;59.45;29.05;;;;;;;;;;5065649;28;20037;-75
2022/12/05 06:40:46;;;;;;;69.00;31.63;;;;;;;;;;5064566;28;20041;-76
2022/12/05 06:43:32;;;;;;;60.92;30.67;;;;;;;;;;5058106;28;20041;-76
2022/12/05 06:46:17;;;;;;;59.30;27.10;;;;;;;;;;5057164;28;20402;-75
2022/12/05 06:49:03;;;;;;;78.15;35.28;;;;;;;;;;5056953;28;20049;-76
2022/12/05 06:51:48;;;;;;;69.90;32.17;;;;;;;;;;5064109;28;20486;-76
2022/12/05 06:54:34;;;;;;;57.97;26.83;;;;;;;;;;5057408;28;20041;-76
2022/12/05 06:57:19;;;;;;;64.05;29.58;;;;;;;;;;5064581;28;20041;-77
2022/12/05 07:03:10;;;;;;;76.60;34.55;;;;;;;;;;5063326;28;20041;-76
2022/12/05 07:05:58;;;;;;;68.32;32.72;;;;;;;;;;5056803;28;20057;-76
2022/12/05 07:08:44;;;;;;;59.78;30.52;;;;;;;;;;5065029;28;20052;-77
2022/12/05 07:11:29;;;;;;;70.50;32.80;;;;;;;;;;5056581;28;20478;-76
2022/12/05 07:14:15;;;;;;;68.53;32.33;;;;;;;;;;5062930;28;20048;-74
2022/12/05 07:17:00;;;;;;;68.50;31.67;;;;;;;;;;5062808;28;20037;-77
2022/12/05 07:19:48;;;;;;;70.28;32.30;;;;;;;;;;5056434;28;20045;-74
2022/12/05 07:22:35;;;;;;;83.25;36.38;;;;;;;;;;5062895;28;20041;-76
2022/12/05 07:25:21;;;;;;;63.70;30.33;;;;;;;;;;5056538;28;20053;-76
2022/12/05 07:28:07;;;;;;;59.47;29.98;;;;;;;;;;5056879;28;20490;-74
2022/12/05 07:31:11;;;;;;;70.50;34.47;;;;;;;;;;5055950;28;20410;-76
2022/12/05 07:33:56;;;;;;;51.47;25.17;;;;;;;;;;5056157;28;20391;-76
2022/12/05 07:36:41;;;;;;;59.47;27.40;;;;;;;;;;5055993;28;20045;-75
2022/12/05 07:39:28;;;;;;;53.75;24.77;;;;;;;;;;5066412;28;20040;-77
2022/12/05 07:42:13;;;;;;;47.42;25.35;;;;;;;;;;5078500;28;20033;-76
2022/12/05 07:44:58;;;;;;;37.05;21.00;;;;;;;;;;5055393;28;20430;-75
2022/12/05 07:47:43;;;;;;;32.03;18.10;;;;;;;;;;5055284;28;20048;-76
2022/12/05 07:50:28;;;;;;;37.45;20.40;;;;;;;;;;5055205;28;20057;-76
2022/12/05 07:53:14;;;;;;;35.92;20.13;;;;;;;;;;5055618;28;20490;-77
2022/12/05 07:56:03;;;;;;;82.35;42.63;;;;;;;;;;5055475;28;20045;-76
2022/12/05 07:58:49;;;;;;;35.42;20.40;;;;;;;;;;5055325;28;20045;-74
2022/12/05 08:01:35;;;;;;;42.53;22.20;;;;;;;;;;5055559;28;20049;-77
2022/12/05 08:04:21;;;;;;;49.83;25.45;;;;;;;;;;5062182;28;20045;-78
2022/12/05 08:07:09;;;;;;;38.03;21.27;;;;;;;;;;5057403;28;20504;-77
2022/12/05 08:09:54;;;;;;;27.88;15.30;;;;;;;;;;5062062;28;20049;-76
2022/12/05 08:12:39;;;;;;;29.65;17.05;;;;;;;;;;5061916;28;20045;-77
2022/12/05 08:15:25;;;;;;;23.30;13.80;;;;;;;;;;5061880;28;20048;-74
2022/12/05 08:18:10;;;;;;;30.45;17.52;;;;;;;;;;5061839;28;20041;-76
2022/12/05 08:21:04;;;;;;;35.50;16.38;;;;;;;;;;5055281;28;20045;-75
2022/12/05 08:23:50;;;;;;;27.98;15.55;;;;;;;;;;5054933;28;20494;-74
2022/12/05 08:26:37;;;;;;;33.00;18.15;;;;;;;;;;5061757;28;20045;-74
2022/12/05 08:29:22;;;;;;;7.35;3.92;;;;;;;;;;5065590;28;20366;-76
2022/12/05 08:32:07;;;;;;;12.40;7.82;;;;;;;;;;5062724;28;20049;-76
2022/12/05 08:34:53;;;;;;;22.88;13.73;;;;;;;;;;5054855;28;20049;-74
2022/12/05 08:37:38;;;;;;;14.07;7.43;;;;;;;;;;5047618;28;20049;-76
2022/12/05 08:40:23;;;;;;;12.00;7.18;;;;;;;;;;5056668;28;20041;-76
2022/12/05 08:43:08;;;;;;;10.88;7.00;;;;;;;;;;5061772;28;20036;-76
2022/12/05 08:45:54;;;;;;;13.95;7.95;;;;;;;;;;5056294;28;20037;-77
2022/12/05 08:48:40;;;;;;;8.80;5.75;;;;;;;;;;5062093;28;20037;-75
2022/12/05 08:51:27;;;;;;;10.90;7.40;;;;;;;;;;5054365;28;20136;-75
2022/12/05 08:54:12;;;;;;;14.18;9.00;;;;;;;;;;5060881;28;20041;-77
2022/12/05 08:56:58;;;;;;;17.90;9.35;;;;;;;;;;5061073;28;20053;-76
2022/12/05 08:59:43;;;;;;;11.45;7.10;;;;;;;;;;5055109;28;20049;-75
2022/12/05 09:02:29;;;;;;;7.25;5.25;;;;;;;;;;5060557;28;20036;-76
2022/12/05 09:05:14;;;;;;;15.75;9.50;;;;;;;;;;5060956;28;20044;-79
2022/12/05 09:08:00;;;;;;;11.60;7.40;;;;;;;;;;5053761;28;20045;-76
2022/12/05 09:10:45;;;;;;;8.32;4.57;;;;;;;;;;5053908;28;20057;-76
2022/12/05 09:13:31;;;;;;;8.63;4.75;;;;;;;;;;5054040;28;20038;-76
2022/12/05 09:16:21;;;;;;;8.88;5.72;;;;;;;;;;5063186;28;20041;-76
2022/12/05 09:19:15;;;;;;;11.93;6.55;;;;;;;;;;5054039;28;20044;-76
2022/12/05 09:22:01;;;;;;;11.82;6.90;;;;;;;;;;5054652;28;20040;-76
2022/12/05 09:24:46;;;;;;;11.88;6.90;;;;;;;;;;5053840;28;20041;-78
2022/12/05 09:27:32;;;;;;;10.10;5.80;;;;;;;;;;5060825;28;20394;-78
2022/12/05 09:30:17;;;;;;;14.25;6.78;;;;;;;;;;5053920;28;20052;-77
2022/12/05 09:33:03;;;;;;;11.00;6.30;;;;;;;;;;5054012;28;20486;-77
2022/12/05 09:35:48;;;;;;;10.93;7.03;;;;;;;;;;5060415;28;20045;-78
2022/12/05 09:38:35;;;;;;;13.27;7.07;;;;;;;;;;5053678;28;20049;-78
2022/12/05 09:45:25;;;;;;;12.45;7.85;;;;;;;;;;5054454;28;20052;-75
2022/12/05 09:48:18;;;;;;;12.23;7.07;;;;;;;;;;5035480;28;20387;-75
2022/12/05 09:51:09;;;;;;;68.45;24.10;;;;;;;;;;5040627;28;20057;-78
2022/12/05 09:53:55;;;;;;;85.30;30.98;;;;;;;;;;5066771;28;20045;-77
2022/12/05 09:56:44;;;;;;;19.58;8.20;;;;;;;;;;5062136;28;20041;-76
2022/12/05 09:59:29;;;;;;;62.00;25.50;;;;;;;;;;5060215;28;20045;-76
2022/12/05 10:02:48;;;;;;;16.05;8.07;;;;;;;;;;5061769;28;20041;-78
2022/12/05 10:06:14;;;;;;;28.95;15.63;;;;;;;;;;5057624;28;20045;-77
2022/12/05 10:09:21;;;;;;;22.75;12.70;;;;;;;;;;5057471;28;20041;-77
2022/12/05 10:12:35;;;;;;;18.40;10.23;;;;;;;;;;5057433;28;20049;-75
2022/12/05 10:15:46;;;;;;;29.77;18.17;;;;;;;;;;5057179;28;20482;-75
2022/12/05 10:18:41;;;;;;;31.80;18.33;;;;;;;;;;5057082;28;20045;-76
2022/12/05 10:21:46;;;;;;;15.38;8.77;;;;;;;;;;5056922;28;20402;-78
2022/12/05 10:24:37;;;;;;;16.97;11.13;;;;;;;;;;5057214;28;20049;-77
2022/12/05 10:27:32;;;;;;;18.52;11.23;;;;;;;;;;5057163;28;20265;-75
2022/12/05 10:30:23;;;;;;;19.15;11.70;;;;;;;;;;5048460;28;20041;-76
2022/12/05 10:33:20;;;;;;;12.43;7.00;;;;;;;;;;5063723;28;20989;-76
2022/12/05 10:36:12;;;;;;;12.07;8.15;;;;;;;;;;5056939;28;20037;-76
2022/12/05 10:38:58;;;;;;;14.10;8.15;;;;;;;;;;5063660;28;20479;-76
2022/12/05 10:41:43;;;;;;;11.35;7.70;;;;;;;;;;5056632;28;20053;-77
2022/12/05 10:44:29;;;;;;;14.38;7.65;;;;;;;;;;5056282;28;20426;-78
2022/12/05 10:47:15;;;;;;;19.42;11.32;;;;;;;;;;5064704;28;20419;-76
2022/12/05 10:50:14;;;;;;;12.35;7.90;;;;;;;;;;5058162;28;20049;-75
2022/12/05 10:53:02;;;;;;;14.35;8.43;;;;;;;;;;5063656;28;20053;-78
2022/12/05 10:55:52;;;;;;;24.38;12.65;;;;;;;;;;5063904;28;20041;-76
2022/12/05 10:58:53;;;;;;;18.00;10.20;;;;;;;;;;5064296;28;20045;-77
2022/12/05 11:01:47;;;;;;;23.70;14.15;;;;;;;;;;5063107;28;20053;-77
2022/12/05 11:04:42;;;;;;;16.98;10.45;;;;;;;;;;5056739;28;20049;-76
2022/12/05 11:07:33;;;;;;;16.13;9.32;;;;;;;;;;5056560;28;20037;-77
2022/12/05 11:10:42;;;;;;;13.43;6.85;;;;;;;;;;5062934;28;20053;-76
2022/12/05 11:13:28;;;;;;;14.25;7.88;;;;;;;;;;5056382;28;20041;-79
2022/12/05 11:16:23;;;;;;;25.00;14.00;;;;;;;;;;5061985;28;20045;-78
2022/12/05 11:19:20;;;;;;;18.70;11.05;;;;;;;;;;5055989;28;20390;-77
2022/12/05 11:22:06;;;;;;;12.07;8.25;;;;;;;;;;5062939;28;20041;-76
2022/12/05 11:24:53;;;;;;;15.15;8.18;;;;;;;;;;5062602;28;20056;-75
2022/12/05 11:27:39;;;;;;;27.27;13.55;;;;;;;;;;5062704;28;20041;-75
2022/12/05 11:30:27;;;;;;;21.23;12.00;;;;;;;;;;5062689;28;20041;-77
2022/12/05 11:33:21;;;;;;;21.85;12.60;;;;;;;;;;5056676;28;20041;-76
2022/12/05 11:36:22;;;;;;;14.75;8.80;;;;;;;;;;5057833;28;20041;-77
2022/12/05 11:39:11;;;;;;;19.98;12.30;;;;;;;;;;5055926;28;20053;-77
2022/12/05 11:42:17;;;;;;;14.93;8.90;;;;;;;;;;5062390;28;20048;-76
2022/12/05 11:45:34;;;;;;;19.90;10.13;;;;;;;;;;5056360;28;20037;-77
2022/12/05 11:48:33;;;;;;;17.85;10.27;;;;;;;;;;5055781;28;20045;-76
2022/12/05 11:51:30;;;;;;;17.23;9.23;;;;;;;;;;5056365;28;20474;-77
2022/12/05 11:54:44;;;;;;;16.55;8.25;;;;;;;;;;5062717;28;20398;-77
2022/12/05 11:57:39;;;;;;;15.05;9.57;;;;;;;;;;5055358;28;20041;-77
2022/12/05 12:00:50;;;;;;;16.75;10.25;;;;;;;;;;5055427;28;20140;-76
2022/12/05 12:03:45;;;;;;;15.60;9.75;;;;;;;;;;5055470;28;20470;-77
2022/12/05 12:06:47;;;;;;;18.15;10.43;;;;;;;;;;5079715;28;20053;-77
2022/12/05 12:09:42;;;;;;;20.60;10.43;;;;;;;;;;5062481;28;20053;-75
2022/12/05 12:13:04;;;;;;;19.30;8.85;;;;;;;;;;5055150;28;20045;-76
2022/12/05 12:15:52;;;;;;;16.30;9.50;;;;;;;;;;5061988;28;20053;-76
2022/12/05 12:18:53;;;;;;;17.15;9.95;;;;;;;;;;5055598;28;20050;-78
2022/12/05 12:22:01;;;;;;;16.85;8.77;;;;;;;;;;5056961;28;20045;-77
2022/12/05 12:25:14;;;;;;;25.30;12.10;;;;;;;;;;5055633;28;20389;-76
2022/12/05 12:28:07;;;;;;;19.73;12.32;;;;;;;;;;5056046;28;20049;-77
2022/12/05 12:30:58;;;;;;;24.88;13.77;;;;;;;;;;5061791;28;20421;-76
2022/12/05 12:33:56;;;;;;;23.85;12.63;;;;;;;;;;5061498;28;20502;-77
2022/12/05 12:36:53;;;;;;;19.65;10.77;;;;;;;;;;5054937;28;20049;-76
2022/12/05 12:39:51;;;;;;;18.27;10.23;;;;;;;;;;5061575;28;20398;-76
2022/12/05 12:42:55;;;;;;;18.00;10.65;;;;;;;;;;5061245;28;20040;-77
2022/12/05 12:45:50;;;;;;;21.83;12.52;;;;;;;;;;5054822;28;20044;-77
2022/12/05 12:48:54;;;;;;;17.52;9.20;;;;;;;;;;5054448;28;20045;-76
2022/12/05 12:51:51;;;;;;;21.40;13.60;;;;;;;;;;5061408;28;20044;-76
2022/12/05 12:54:58;;;;;;;21.75;11.82;;;;;;;;;;5054328;28;20045;-76
2022/12/05 12:58:02;;;;;;;20.48;13.07;;;;;;;;;;5061151;28;20041;-77
2022/12/05 13:01:16;;;;;;;23.15;12.57;;;;;;;;;;5053957;28;20044;-77
2022/12/05 13:04:08;;;;;;;19.27;12.48;;;;;;;;;;5061033;28;20041;-77
2022/12/05 13:07:02;;;;;;;19.15;11.43;;;;;;;;;;5061915;28;20037;-76
2022/12/05 13:09:58;;;;;;;21.55;12.85;;;;;;;;;;5054476;28;20049;-77
2022/12/05 13:12:44;;;;;;;14.18;9.32;;;;;;;;;;5060732;28;20045;-77
2022/12/05 13:15:46;;;;;;;11.80;7.50;;;;;;;;;;5054006;28;20045;-78
2022/12/05 13:18:32;;;;;;;29.92;15.88;;;;;;;;;;5061198;28;20041;-75
2022/12/05 13:21:19;;;;;;;22.92;11.35;;;;;;;;;;5053526;28;20056;-76
2022/12/05 13:24:09;;;;;;;22.30;11.45;;;;;;;;;;5055246;28;20049;-76
2022/12/05 13:27:06;;;;;;;21.80;12.10;;;;;;;;;;5060359;28;20040;-76
2022/12/05 13:29:56;;;;;;;18.27;10.35;;;;;;;;;;5060524;28;20036;-79
2022/12/05 13:32:42;;;;;;;19.20;10.77;;;;;;;;;;5053282;28;20498;-77
2022/12/05 13:44:53;;;;;;;8.40;5.82;;;;;;;;;;5054942;28;20045;-76
2022/12/05 13:47:46;;;;;;;18.45;10.50;;;;;;;;;;5053949;28;20049;-76
2022/12/05 13:50:32;;;;;;;18.85;10.43;;;;;;;;;;5053938;28;20411;-76
2022/12/05 13:54:08;;;;;;;19.60;11.13;;;;;;;;;;5061960;28;20041;-77
2022/12/05 13:57:00;;;;;;;28.63;14.60;;;;;;;;;;5013008;28;20045;-77
2022/12/05 14:00:09;;;;;;;24.58;13.77;;;;;;;;;;5053706;28;20041;-75
2022/12/05 14:03:37;;;;;;;23.02;11.65;;;;;;;;;;5053175;28;20501;-76
2022/12/05 14:06:37;;;;;;;19.10;10.55;;;;;;;;;;5053220;28;20482;-76
2022/12/05 14:09:29;;;;;;;28.77;17.15;;;;;;;;;;5059641;28;20045;-76
2022/12/05 14:12:14;;;;;;;18.88;10.40;;;;;;;;;;5060151;28;20493;-76
2022/12/05 14:15:00;;;;;;;21.60;10.90;;;;;;;;;;5053797;28;20049;-77
2022/12/05 14:17:45;;;;;;;18.92;9.57;;;;;;;;;;5071858;28;20029;-76
2022/12/05 14:20:51;;;;;;;20.05;11.30;;;;;;;;;;5061587;28;20041;-77
2022/12/05 14:23:59;;;;;;;24.55;15.18;;;;;;;;;;5059685;28;20041;-77
2022/12/05 14:27:07;;;;;;;22.48;11.45;;;;;;;;;;5059910;28;20057;-76
2022/12/05 14:30:04;;;;;;;18.77;11.35;;;;;;;;;;5060150;28;20044;-76
2022/12/05 14:32:52;;;;;;;22.95;12.13;;;;;;;;;;5059660;28;20053;-78
2022/12/05 14:35:47;;;;;;;21.02;11.07;;;;;;;;;;5053121;28;20063;-75
2022/12/05 14:38:36;;;;;;;21.25;10.43;;;;;;;;;;5053346;28;20088;-76
2022/12/05 14:41:30;;;;;;;23.95;13.32;;;;;;;;;;5059722;28;20082;-77
2022/12/05 14:44:18;;;;;;;21.52;12.13;;;;;;;;;;5055277;28;20045;-77
2022/12/05 14:47:05;;;;;;;23.75;13.80;;;;;;;;;;5059770;28;20049;-78
2022/12/05 14:49:52;;;;;;;18.70;10.18;;;;;;;;;;5053285;28;20398;-77
2022/12/05 14:52:39;;;;;;;23.48;12.27;;;;;;;;;;5056976;28;20053;-75
2022/12/05 14:55:25;;;;;;;43.42;26.73;;;;;;;;;;5063594;28;20049;-75
2022/12/05 14:58:23;;;;;;;57.00;30.83;;;;;;;;;;5063652;28;20037;-77
2022/12/05 15:01:21;;;;;;;192.70;78.85;;;;;;;;;;5063772;28;20041;-78
2022/12/05 15:04:38;;;;;;;150.73;72.45;;;;;;;;;;5063492;28;20037;-76
2022/12/05 15:07:36;;;;;;;74.28;44.17;;;;;;;;;;5063055;28;20048;-75
2022/12/05 15:10:30;;;;;;;46.05;30.65;;;;;;;;;;5063160;28;20048;-78
2022/12/05 15:13:20;;;;;;;46.38;27.55;;;;;;;;;;5063617;28;20053;-77
2022/12/05 15:16:13;;;;;;;23.48;13.43;;;;;;;;;;5056239;28;20033;-77
2022/12/05 15:19:05;;;;;;;41.28;23.45;;;;;;;;;;5056451;28;20053;-78
2022/12/05 15:21:56;;;;;;;56.53;33.97;;;;;;;;;;5056205;28;20045;-78
2022/12/05 15:24:41;;;;;;;133.85;62.03;;;;;;;;;;5065261;28;20041;-76
2022/12/05 15:27:27;;;;;;;31.13;18.17;;;;;;;;;;5062981;28;20044;-78
2022/12/05 15:30:16;;;;;;;95.22;59.17;;;;;;;;;;5062756;28;20053;-77
2022/12/05 15:33:01;;;;;;;37.80;21.42;;;;;;;;;;5056157;28;20045;-76
2022/12/05 15:35:51;;;;;;;33.30;20.35;;;;;;;;;;5055918;28;20044;-79
2022/12/05 15:38:36;;;;;;;72.65;36.22;;;;;;;;;;5055990;28;20049;-77
2022/12/05 15:41:22;;;;;;;49.53;24.38;;;;;;;;;;5056769;28;20044;-77
2022/12/05 15:44:10;;;;;;;28.02;16.55;;;;;;;;;;5058369;28;20049;-78
2022/12/05 15:46:56;;;;;;;72.60;31.25;;;;;;;;;;5055318;28;20053;-78
2022/12/05 15:49:40;;;;;;;40.58;20.33;;;;;;;;;;5062133;28;20037;-77
2022/12/05 15:52:30;;;;;;;59.03;25.55;;;;;;;;;;5055547;28;20041;-76
2022/12/05 15:55:45;;;;;;;122.95;42.25;;;;;;;;;;5063019;28;20044;-78
2022/12/05 15:58:36;;;;;;;48.10;23.77;;;;;;;;;;5057801;28;20053;-78
2022/12/05 16:01:25;;;;;;;51.35;26.00;;;;;;;;;;5061567;28;20048;-79
2022/12/05 16:04:16;;;;;;;37.45;21.23;;;;;;;;;;5055926;28;20049;-79
2022/12/05 16:07:08;;;;;;;28.83;16.33;;;;;;;;;;5048823;28;20041;-79
2022/12/05 16:09:58;;;;;;;30.15;15.32;;;;;;;;;;5047195;28;20036;-79
2022/12/05 16:12:44;;;;;;;30.98;18.35;;;;;;;;;;5056130;28;20044;-80
2022/12/05 16:15:30;;;;;;;34.08;19.08;;;;;;;;;;5047862;28;20053;-81
2022/12/05 16:18:27;;;;;;;41.92;24.23;;;;;;;;;;5042640;28;20390;-78
2022/12/05 16:21:39;;;;;;;17.77;10.07;;;;;;;;;;5058188;28;20044;-81
2022/12/05 16:24:31;;;;;;;30.58;16.77;;;;;;;;;;5040210;28;20391;-76
2022/12/05 16:27:19;;;;;;;25.20;14.48;;;;;;;;;;5061450;28;20037;-75
2022/12/05 16:30:19;;;;;;;21.15;12.75;;;;;;;;;;5075325;28;20037;-78
2022/12/05 16:33:12;;;;;;;25.30;15.57;;;;;;;;;;5067448;28;20041;-77
2022/12/05 16:36:09;;;;;;;22.35;12.45;;;;;;;;;;5061546;28;20045;-78
2022/12/05 16:39:03;;;;;;;18.10;9.93;;;;;;;;;;5054706;28;20037;-78
2022/12/05 16:41:48;;;;;;;19.25;10.48;;;;;;;;;;5061368;28;20045;-79
2022/12/05 16:44:46;;;;;;;28.85;16.70;;;;;;;;;;5060155;28;20053;-79
2022/12/05 16:47:55;;;;;;;22.88;13.10;;;;;;;;;;5055545;28;20037;-79
2022/12/05 16:50:41;;;;;;;30.70;16.27;;;;;;;;;;5054280;28;20044;-77
2022/12/05 16:53:30;;;;;;;21.98;12.93;;;;;;;;;;5055405;28;20057;-78
2022/12/05 16:56:18;;;;;;;20.48;9.18;;;;;;;;;;5055168;28;20048;-77
2022/12/05 16:59:06;;;;;;;32.20;19.30;;;;;;;;;;5054708;28;20040;-77
2022/12/05 17:01:51;;;;;;;24.17;13.85;;;;;;;;;;5059876;28;20052;-78
2022/12/05 17:04:37;;;;;;;18.27;12.57;;;;;;;;;;5054442;28;20072;-76